sensor_id;sensor_type;location;lat;lon;timestamp;P1;durP1;ratioP1;P2;durP2;ratioP2
50649;SDS011;36621;60.058;30.346;2023-03-11T04:20:27;15.88;;;7.57;;
50649;SDS011;36621;60.058;30.346;2023-03-11T04:28:01;17.33;;;8.30;;
50649;SDS011;36621;60.058;30.346;2023-03-11T04:35:37;16.85;;;7.47;;
50649;SDS011;36621;60.058;30.346;2023-03-11T04:43:10;35.05;;;13.82;;
50649;SDS011;36621;60.058;30.346;2023-03-11T04:50:43;36.03;;;15.93;;
50649;SDS011;36621;60.058;30.346;2023-03-11T04:58:16;25.92;;;12.57;;
50649;SDS011;36621;60.058;30.346;2023-03-11T05:05:51;28.23;;;12.90;;
50649;SDS011;36621;60.058;30.346;2023-03-11T05:13:26;21.63;;;10.35;;
50649;SDS011;36621;60.058;30.346;2023-03-11T05:20:59;23.75;;;10.77;;
50649;SDS011;36621;60.058;30.346;2023-03-11T05:28:35;27.30;;;11.38;;
50649;SDS011;36621;60.058;30.346;2023-03-11T05:36:08;19.50;;;9.35;;
50649;SDS011;36621;60.058;30.346;2023-03-11T05:43:44;17.33;;;9.10;;
50649;SDS011;36621;60.058;30.346;2023-03-11T05:51:19;21.10;;;9.20;;
50649;SDS011;36621;60.058;30.346;2023-03-11T05:58:52;14.98;;;8.73;;
50649;SDS011;36621;60.058;30.346;2023-03-11T06:06:25;22.75;;;10.15;;
50649;SDS011;36621;60.058;30.346;2023-03-11T06:13:57;16.67;;;8.45;;
50649;SDS011;36621;60.058;30.346;2023-03-11T06:21:34;19.00;;;8.77;;
50649;SDS011;36621;60.058;30.346;2023-03-11T06:29:07;29.25;;;11.18;;
50649;SDS011;36621;60.058;30.346;2023-03-11T06:36:43;22.17;;;10.85;;
50649;SDS011;36621;60.058;30.346;2023-03-11T06:44:15;26.08;;;10.55;;
50649;SDS011;36621;60.058;30.346;2023-03-11T06:51:48;16.85;;;8.55;;
50649;SDS011;36621;60.058;30.346;2023-03-11T06:59:20;19.45;;;7.65;;
50649;SDS011;36621;60.058;30.346;2023-03-11T07:06:55;19.17;;;8.60;;
50649;SDS011;36621;60.058;30.346;2023-03-11T07:14:27;17.63;;;8.82;;
50649;SDS011;36621;60.058;30.346;2023-03-11T07:22:03;19.77;;;8.13;;
50649;SDS011;36621;60.058;30.346;2023-03-11T07:29:35;19.73;;;8.65;;
50649;SDS011;36621;60.058;30.346;2023-03-11T07:37:07;19.50;;;8.00;;
50649;SDS011;36621;60.058;30.346;2023-03-11T07:44:39;30.17;;;8.35;;
50649;SDS011;36621;60.058;30.346;2023-03-11T07:52:12;21.30;;;7.15;;
50649;SDS011;36621;60.058;30.346;2023-03-11T07:59:44;20.35;;;5.82;;
50649;SDS011;36621;60.058;30.346;2023-03-11T08:07:17;7.85;;;4.40;;
50649;SDS011;36621;60.058;30.346;2023-03-11T08:14:50;10.38;;;3.28;;
50649;SDS011;36621;60.058;30.346;2023-03-11T08:22:23;3.97;;;3.13;;
50649;SDS011;36621;60.058;30.346;2023-03-11T08:29:55;9.90;;;4.82;;
50649;SDS011;36621;60.058;30.346;2023-03-11T08:37:29;9.70;;;3.47;;
50649;SDS011;36621;60.058;30.346;2023-03-11T08:45:01;7.03;;;4.00;;
50649;SDS011;36621;60.058;30.346;2023-03-11T08:52:34;16.58;;;3.83;;
50649;SDS011;36621;60.058;30.346;2023-03-11T09:00:07;6.07;;;3.30;;
50649;SDS011;36621;60.058;30.346;2023-03-11T09:07:41;15.10;;;4.22;;
50649;SDS011;36621;60.058;30.346;2023-03-11T09:15:13;9.25;;;3.60;;
50649;SDS011;36621;60.058;30.346;2023-03-11T09:22:45;4.65;;;2.67;;
50649;SDS011;36621;60.058;30.346;2023-03-11T09:30:18;6.10;;;2.03;;
50649;SDS011;36621;60.058;30.346;2023-03-11T09:37:51;11.27;;;3.42;;
50649;SDS011;36621;60.058;30.346;2023-03-11T09:45:23;12.93;;;3.13;;
50649;SDS011;36621;60.058;30.346;2023-03-11T09:53:02;5.75;;;2.35;;
50649;SDS011;36621;60.058;30.346;2023-03-11T10:00:44;4.13;;;2.42;;
50649;SDS011;36621;60.058;30.346;2023-03-11T10:08:27;5.82;;;2.30;;
50649;SDS011;36621;60.058;30.346;2023-03-11T10:16:05;5.60;;;2.05;;
50649;SDS011;36621;60.058;30.346;2023-03-11T10:23:52;3.95;;;2.10;;
50649;SDS011;36621;60.058;30.346;2023-03-11T10:39:12;7.13;;;2.75;;
50649;SDS011;36621;60.058;30.346;2023-03-11T10:46:45;8.35;;;3.08;;
50649;SDS011;36621;60.058;30.346;2023-03-11T10:54:24;5.32;;;2.22;;
50649;SDS011;36621;60.058;30.346;2023-03-11T11:01:58;7.47;;;2.90;;
50649;SDS011;36621;60.058;30.346;2023-03-11T11:09:32;9.90;;;2.20;;
50649;SDS011;36621;60.058;30.346;2023-03-11T11:17:04;8.10;;;2.20;;
50649;SDS011;36621;60.058;30.346;2023-03-11T11:24:38;6.57;;;3.05;;
50649;SDS011;36621;60.058;30.346;2023-03-11T11:32:19;7.22;;;3.03;;
50649;SDS011;36621;60.058;30.346;2023-03-11T11:39:57;5.15;;;2.55;;
50649;SDS011;36621;60.058;30.346;2023-03-11T11:47:32;5.50;;;2.63;;
50649;SDS011;36621;60.058;30.346;2023-03-11T11:55:12;2.78;;;1.90;;
50649;SDS011;36621;60.058;30.346;2023-03-11T12:02:55;3.42;;;2.40;;
50649;SDS011;36621;60.058;30.346;2023-03-11T12:10:41;2.53;;;1.58;;
50649;SDS011;36621;60.058;30.346;2023-03-11T12:18:21;3.40;;;2.08;;
50649;SDS011;36621;60.058;30.346;2023-03-11T12:26:02;5.03;;;2.50;;
50649;SDS011;36621;60.058;30.346;2023-03-11T12:33:43;9.07;;;3.03;;
50649;SDS011;36621;60.058;30.346;2023-03-11T12:49:12;3.42;;;2.00;;
50649;SDS011;36621;60.058;30.346;2023-03-11T12:56:47;9.15;;;3.53;;
50649;SDS011;36621;60.058;30.346;2023-03-11T13:04:26;15.57;;;3.42;;
50649;SDS011;36621;60.058;30.346;2023-03-11T13:28:39;3.42;;;1.83;;
50649;SDS011;36621;60.058;30.346;2023-03-11T13:36:40;8.95;;;2.60;;
50649;SDS011;36621;60.058;30.346;2023-03-11T13:44:26;4.97;;;2.78;;
50649;SDS011;36621;60.058;30.346;2023-03-11T13:52:00;3.53;;;2.10;;
50649;SDS011;36621;60.058;30.346;2023-03-11T13:59:35;3.88;;;2.40;;
50649;SDS011;36621;60.058;30.346;2023-03-11T14:07:12;7.97;;;2.92;;
50649;SDS011;36621;60.058;30.346;2023-03-11T14:14:58;6.20;;;2.17;;
50649;SDS011;36621;60.058;30.346;2023-03-11T14:22:34;3.97;;;2.70;;
50649;SDS011;36621;60.058;30.346;2023-03-11T14:30:16;7.10;;;2.75;;
50649;SDS011;36621;60.058;30.346;2023-03-11T14:37:50;12.07;;;5.38;;
50649;SDS011;36621;60.058;30.346;2023-03-11T14:45:23;4.88;;;3.38;;
50649;SDS011;36621;60.058;30.346;2023-03-11T14:53:00;5.25;;;2.97;;
50649;SDS011;36621;60.058;30.346;2023-03-11T15:00:37;7.97;;;4.53;;
50649;SDS011;36621;60.058;30.346;2023-03-11T15:08:14;4.40;;;3.70;;
50649;SDS011;36621;60.058;30.346;2023-03-11T15:16:18;7.60;;;3.70;;
50649;SDS011;36621;60.058;30.346;2023-03-11T15:23:55;5.47;;;3.80;;
50649;SDS011;36621;60.058;30.346;2023-03-11T15:31:35;6.37;;;4.13;;
50649;SDS011;36621;60.058;30.346;2023-03-11T15:39:12;4.60;;;3.03;;
50649;SDS011;36621;60.058;30.346;2023-03-11T15:54:21;12.32;;;6.28;;
50649;SDS011;36621;60.058;30.346;2023-03-11T16:01:53;5.38;;;3.35;;
50649;SDS011;36621;60.058;30.346;2023-03-11T16:09:26;6.53;;;3.13;;
50649;SDS011;36621;60.058;30.346;2023-03-11T16:16:58;5.75;;;2.97;;
50649;SDS011;36621;60.058;30.346;2023-03-11T16:24:31;5.15;;;2.92;;
50649;SDS011;36621;60.058;30.346;2023-03-11T16:32:04;4.18;;;2.80;;
50649;SDS011;36621;60.058;30.346;2023-03-11T16:39:36;9.25;;;3.30;;
50649;SDS011;36621;60.058;30.346;2023-03-11T16:47:09;4.72;;;2.22;;
50649;SDS011;36621;60.058;30.346;2023-03-11T16:54:41;7.97;;;3.10;;
50649;SDS011;36621;60.058;30.346;2023-03-11T17:02:14;4.97;;;2.55;;
50649;SDS011;36621;60.058;30.346;2023-03-11T17:09:49;4.50;;;3.25;;
50649;SDS011;36621;60.058;30.346;2023-03-11T17:17:22;7.50;;;3.35;;
50649;SDS011;36621;60.058;30.346;2023-03-11T17:24:55;6.63;;;2.40;;
50649;SDS011;36621;60.058;30.346;2023-03-11T17:32:28;4.97;;;3.22;;
50649;SDS011;36621;60.058;30.346;2023-03-11T17:40:00;3.65;;;2.42;;
50649;SDS011;36621;60.058;30.346;2023-03-11T17:57:16;8.20;;;3.25;;
50649;SDS011;36621;60.058;30.346;2023-03-11T18:04:48;5.88;;;2.67;;
50649;SDS011;36621;60.058;30.346;2023-03-11T18:12:22;3.90;;;2.67;;
50649;SDS011;36621;60.058;30.346;2023-03-11T18:19:54;7.40;;;3.53;;
50649;SDS011;36621;60.058;30.346;2023-03-11T18:27:29;4.25;;;2.72;;
50649;SDS011;36621;60.058;30.346;2023-03-11T18:35:01;6.95;;;3.83;;
50649;SDS011;36621;60.058;30.346;2023-03-11T18:42:35;8.05;;;3.70;;
50649;SDS011;36621;60.058;30.346;2023-03-11T18:50:07;4.60;;;3.40;;
50649;SDS011;36621;60.058;30.346;2023-03-11T18:57:41;5.78;;;3.40;;
50649;SDS011;36621;60.058;30.346;2023-03-11T19:05:13;8.52;;;5.10;;
50649;SDS011;36621;60.058;30.346;2023-03-11T19:12:46;10.93;;;4.40;;
50649;SDS011;36621;60.058;30.346;2023-03-11T19:20:18;10.68;;;4.95;;
50649;SDS011;36621;60.058;30.346;2023-03-11T19:27:50;10.32;;;4.43;;
50649;SDS011;36621;60.058;30.346;2023-03-11T19:35:22;8.18;;;4.70;;
50649;SDS011;36621;60.058;30.346;2023-03-11T19:42:55;9.88;;;5.25;;
50649;SDS011;36621;60.058;30.346;2023-03-11T19:50:29;9.73;;;5.47;;
50649;SDS011;36621;60.058;30.346;2023-03-11T19:58:01;8.02;;;5.60;;
50649;SDS011;36621;60.058;30.346;2023-03-11T20:05:33;12.75;;;6.15;;
50649;SDS011;36621;60.058;30.346;2023-03-11T20:13:06;9.30;;;5.55;;
50649;SDS011;36621;60.058;30.346;2023-03-11T20:20:39;10.70;;;6.50;;
50649;SDS011;36621;60.058;30.346;2023-03-11T20:28:13;13.82;;;7.28;;
50649;SDS011;36621;60.058;30.346;2023-03-11T20:35:45;11.25;;;6.80;;
50649;SDS011;36621;60.058;30.346;2023-03-11T20:43:18;10.73;;;7.20;;
50649;SDS011;36621;60.058;30.346;2023-03-11T20:50:50;12.50;;;7.78;;
50649;SDS011;36621;60.058;30.346;2023-03-11T20:58:22;10.55;;;6.88;;
50649;SDS011;36621;60.058;30.346;2023-03-11T21:05:55;13.95;;;7.68;;
50649;SDS011;36621;60.058;30.346;2023-03-11T21:13:27;14.98;;;8.07;;
50649;SDS011;36621;60.058;30.346;2023-03-11T21:21:00;13.88;;;8.45;;
50649;SDS011;36621;60.058;30.346;2023-03-11T21:28:34;13.98;;;8.25;;
50649;SDS011;36621;60.058;30.346;2023-03-11T21:36:06;17.30;;;8.35;;
50649;SDS011;36621;60.058;30.346;2023-03-11T21:43:40;12.35;;;8.00;;
50649;SDS011;36621;60.058;30.346;2023-03-11T21:51:13;12.15;;;7.95;;
50649;SDS011;36621;60.058;30.346;2023-03-11T21:58:47;13.68;;;8.07;;
50649;SDS011;36621;60.058;30.346;2023-03-11T22:06:19;13.35;;;8.57;;
50649;SDS011;36621;60.058;30.346;2023-03-11T22:13:53;15.88;;;8.68;;
50649;SDS011;36621;60.058;30.346;2023-03-11T22:21:27;15.43;;;8.45;;
50649;SDS011;36621;60.058;30.346;2023-03-11T22:28:59;14.30;;;8.93;;
50649;SDS011;36621;60.058;30.346;2023-03-11T22:36:31;13.63;;;8.88;;
50649;SDS011;36621;60.058;30.346;2023-03-11T22:44:04;16.23;;;9.20;;
50649;SDS011;36621;60.058;30.346;2023-03-11T22:51:36;14.38;;;8.98;;
50649;SDS011;36621;60.058;30.346;2023-03-11T22:59:08;15.80;;;8.70;;
50649;SDS011;36621;60.058;30.346;2023-03-11T23:06:40;18.20;;;9.98;;
50649;SDS011;36621;60.058;30.346;2023-03-11T23:14:13;19.10;;;10.95;;
50649;SDS011;36621;60.058;30.346;2023-03-11T23:21:45;15.00;;;9.27;;
50649;SDS011;36621;60.058;30.346;2023-03-11T23:29:17;19.90;;;10.70;;
50649;SDS011;36621;60.058;30.346;2023-03-11T23:36:49;17.05;;;10.38;;
50649;SDS011;36621;60.058;30.346;2023-03-11T23:44:22;17.55;;;10.23;;
50649;SDS011;36621;60.058;30.346;2023-03-11T23:51:54;22.38;;;11.80;;
50649;SDS011;36621;60.058;30.346;2023-03-11T23:59:27;20.70;;;10.93;;
